sensor_id;sensor_type;location;lat;lon;timestamp;P1;durP1;ratioP1;P2;durP2;ratioP2
33421;SDS011;19763;55.798;37.782;2023-07-09T00:02:16;16.75;;;9.77;;
33421;SDS011;19763;55.798;37.782;2023-07-09T00:04:42;15.35;;;9.85;;
33421;SDS011;19763;55.798;37.782;2023-07-09T00:07:19;12.35;;;9.90;;
33421;SDS011;19763;55.798;37.782;2023-07-09T00:09:49;16.30;;;9.80;;
33421;SDS011;19763;55.798;37.782;2023-07-09T00:12:15;15.80;;;9.73;;
33421;SDS011;19763;55.798;37.782;2023-07-09T00:14:42;15.35;;;9.75;;
33421;SDS011;19763;55.798;37.782;2023-07-09T00:17:12;16.33;;;10.07;;
33421;SDS011;19763;55.798;37.782;2023-07-09T00:19:44;17.48;;;10.88;;
33421;SDS011;19763;55.798;37.782;2023-07-09T00:22:15;18.65;;;9.30;;
33421;SDS011;19763;55.798;37.782;2023-07-09T00:24:43;12.93;;;9.90;;
33421;SDS011;19763;55.798;37.782;2023-07-09T00:27:10;13.52;;;9.85;;
33421;SDS011;19763;55.798;37.782;2023-07-09T00:29:36;12.25;;;9.55;;
33421;SDS011;19763;55.798;37.782;2023-07-09T00:32:02;15.13;;;9.70;;
33421;SDS011;19763;55.798;37.782;2023-07-09T00:34:28;15.18;;;10.10;;
33421;SDS011;19763;55.798;37.782;2023-07-09T00:36:53;16.25;;;10.25;;
33421;SDS011;19763;55.798;37.782;2023-07-09T00:39:20;15.38;;;9.98;;
33421;SDS011;19763;55.798;37.782;2023-07-09T00:41:47;19.10;;;10.88;;
33421;SDS011;19763;55.798;37.782;2023-07-09T00:49:16;19.13;;;10.27;;
33421;SDS011;19763;55.798;37.782;2023-07-09T00:51:54;17.38;;;10.63;;
33421;SDS011;19763;55.798;37.782;2023-07-09T00:54:29;15.30;;;9.63;;
33421;SDS011;19763;55.798;37.782;2023-07-09T00:57:06;17.92;;;9.55;;
33421;SDS011;19763;55.798;37.782;2023-07-09T00:59:38;17.88;;;10.32;;
33421;SDS011;19763;55.798;37.782;2023-07-09T01:02:05;12.77;;;10.20;;
33421;SDS011;19763;55.798;37.782;2023-07-09T01:04:33;16.27;;;10.35;;
33421;SDS011;19763;55.798;37.782;2023-07-09T01:07:00;13.77;;;10.13;;
33421;SDS011;19763;55.798;37.782;2023-07-09T01:09:26;15.20;;;9.93;;
33421;SDS011;19763;55.798;37.782;2023-07-09T01:11:52;16.33;;;10.77;;
33421;SDS011;19763;55.798;37.782;2023-07-09T01:14:21;14.13;;;10.43;;
33421;SDS011;19763;55.798;37.782;2023-07-09T01:16:50;14.70;;;9.75;;
33421;SDS011;19763;55.798;37.782;2023-07-09T01:19:22;14.38;;;9.52;;
33421;SDS011;19763;55.798;37.782;2023-07-09T01:21:54;15.40;;;10.52;;
33421;SDS011;19763;55.798;37.782;2023-07-09T01:27:36;13.85;;;10.00;;
33421;SDS011;19763;55.798;37.782;2023-07-09T01:30:06;17.42;;;10.75;;
33421;SDS011;19763;55.798;37.782;2023-07-09T01:32:42;13.48;;;9.95;;
33421;SDS011;19763;55.798;37.782;2023-07-09T01:35:12;18.80;;;10.07;;
33421;SDS011;19763;55.798;37.782;2023-07-09T01:37:40;17.42;;;10.50;;
33421;SDS011;19763;55.798;37.782;2023-07-09T01:40:08;15.27;;;10.25;;
33421;SDS011;19763;55.798;37.782;2023-07-09T01:42:36;13.82;;;10.27;;
33421;SDS011;19763;55.798;37.782;2023-07-09T01:45:04;16.02;;;10.70;;
33421;SDS011;19763;55.798;37.782;2023-07-09T01:47:31;23.60;;;11.43;;
33421;SDS011;19763;55.798;37.782;2023-07-09T01:49:57;16.92;;;10.52;;
33421;SDS011;19763;55.798;37.782;2023-07-09T01:52:27;14.95;;;9.93;;
33421;SDS011;19763;55.798;37.782;2023-07-09T01:54:54;14.38;;;10.07;;
33421;SDS011;19763;55.798;37.782;2023-07-09T01:57:27;13.88;;;10.40;;
33421;SDS011;19763;55.798;37.782;2023-07-09T02:00:03;14.93;;;10.25;;
33421;SDS011;19763;55.798;37.782;2023-07-09T02:02:31;22.15;;;12.10;;
33421;SDS011;19763;55.798;37.782;2023-07-09T02:04:57;14.20;;;9.65;;
33421;SDS011;19763;55.798;37.782;2023-07-09T02:07:24;16.13;;;10.15;;
33421;SDS011;19763;55.798;37.782;2023-07-09T02:09:50;14.07;;;9.57;;
33421;SDS011;19763;55.798;37.782;2023-07-09T02:12:17;16.98;;;10.32;;
33421;SDS011;19763;55.798;37.782;2023-07-09T02:14:44;14.00;;;10.25;;
33421;SDS011;19763;55.798;37.782;2023-07-09T02:17:11;18.55;;;11.00;;
33421;SDS011;19763;55.798;37.782;2023-07-09T02:19:38;16.20;;;11.00;;
33421;SDS011;19763;55.798;37.782;2023-07-09T02:22:04;17.15;;;10.30;;
33421;SDS011;19763;55.798;37.782;2023-07-09T02:24:30;19.65;;;10.48;;
33421;SDS011;19763;55.798;37.782;2023-07-09T02:26:57;17.15;;;9.82;;
33421;SDS011;19763;55.798;37.782;2023-07-09T02:29:25;14.60;;;10.15;;
33421;SDS011;19763;55.798;37.782;2023-07-09T02:31:52;12.40;;;10.35;;
33421;SDS011;19763;55.798;37.782;2023-07-09T02:34:19;14.60;;;10.02;;
33421;SDS011;19763;55.798;37.782;2023-07-09T02:36:45;14.85;;;10.93;;
33421;SDS011;19763;55.798;37.782;2023-07-09T02:39:12;15.95;;;9.75;;
33421;SDS011;19763;55.798;37.782;2023-07-09T02:41:39;17.40;;;9.95;;
33421;SDS011;19763;55.798;37.782;2023-07-09T02:44:05;12.70;;;9.25;;
33421;SDS011;19763;55.798;37.782;2023-07-09T02:46:31;15.43;;;10.07;;
33421;SDS011;19763;55.798;37.782;2023-07-09T02:48:57;11.85;;;8.93;;
33421;SDS011;19763;55.798;37.782;2023-07-09T02:51:23;13.75;;;9.20;;
33421;SDS011;19763;55.798;37.782;2023-07-09T02:53:53;12.18;;;8.80;;
33421;SDS011;19763;55.798;37.782;2023-07-09T02:56:19;12.20;;;8.73;;
33421;SDS011;19763;55.798;37.782;2023-07-09T02:58:45;14.75;;;8.57;;
33421;SDS011;19763;55.798;37.782;2023-07-09T03:01:10;13.00;;;8.70;;
33421;SDS011;19763;55.798;37.782;2023-07-09T03:03:38;11.70;;;8.68;;
33421;SDS011;19763;55.798;37.782;2023-07-09T03:06:04;11.77;;;8.40;;
33421;SDS011;19763;55.798;37.782;2023-07-09T03:08:30;14.15;;;8.80;;
33421;SDS011;19763;55.798;37.782;2023-07-09T03:10:56;12.77;;;8.32;;
33421;SDS011;19763;55.798;37.782;2023-07-09T03:13:22;13.57;;;8.60;;
33421;SDS011;19763;55.798;37.782;2023-07-09T03:15:54;12.38;;;7.93;;
33421;SDS011;19763;55.798;37.782;2023-07-09T03:18:22;14.00;;;8.23;;
33421;SDS011;19763;55.798;37.782;2023-07-09T03:20:47;13.68;;;7.75;;
33421;SDS011;19763;55.798;37.782;2023-07-09T03:23:13;11.65;;;8.02;;
33421;SDS011;19763;55.798;37.782;2023-07-09T03:25:42;10.57;;;7.72;;
33421;SDS011;19763;55.798;37.782;2023-07-09T03:28:09;11.95;;;7.68;;
33421;SDS011;19763;55.798;37.782;2023-07-09T03:30:39;10.85;;;7.10;;
33421;SDS011;19763;55.798;37.782;2023-07-09T03:33:06;10.85;;;7.13;;
33421;SDS011;19763;55.798;37.782;2023-07-09T03:35:32;8.40;;;6.95;;
33421;SDS011;19763;55.798;37.782;2023-07-09T03:37:59;11.10;;;6.28;;
33421;SDS011;19763;55.798;37.782;2023-07-09T03:40:25;8.40;;;6.32;;
33421;SDS011;19763;55.798;37.782;2023-07-09T03:42:50;8.52;;;6.75;;
33421;SDS011;19763;55.798;37.782;2023-07-09T03:45:16;9.30;;;6.50;;
33421;SDS011;19763;55.798;37.782;2023-07-09T03:47:42;11.43;;;6.72;;
33421;SDS011;19763;55.798;37.782;2023-07-09T03:50:08;8.80;;;7.05;;
33421;SDS011;19763;55.798;37.782;2023-07-09T03:52:35;10.50;;;6.40;;
33421;SDS011;19763;55.798;37.782;2023-07-09T03:55:01;6.78;;;6.07;;
33421;SDS011;19763;55.798;37.782;2023-07-09T03:57:32;8.38;;;5.85;;
33421;SDS011;19763;55.798;37.782;2023-07-09T03:59:59;8.00;;;6.07;;
33421;SDS011;19763;55.798;37.782;2023-07-09T04:02:25;10.02;;;6.07;;
33421;SDS011;19763;55.798;37.782;2023-07-09T04:04:51;7.38;;;5.57;;
33421;SDS011;19763;55.798;37.782;2023-07-09T04:07:16;11.13;;;5.80;;
33421;SDS011;19763;55.798;37.782;2023-07-09T04:09:42;8.40;;;5.78;;
33421;SDS011;19763;55.798;37.782;2023-07-09T04:12:08;8.98;;;5.45;;
33421;SDS011;19763;55.798;37.782;2023-07-09T04:14:36;9.68;;;6.30;;
33421;SDS011;19763;55.798;37.782;2023-07-09T04:17:02;11.30;;;5.43;;
33421;SDS011;19763;55.798;37.782;2023-07-09T04:19:28;6.43;;;5.43;;
33421;SDS011;19763;55.798;37.782;2023-07-09T04:21:54;6.00;;;4.47;;
33421;SDS011;19763;55.798;37.782;2023-07-09T04:24:19;7.22;;;5.20;;
33421;SDS011;19763;55.798;37.782;2023-07-09T04:26:46;7.72;;;5.20;;
33421;SDS011;19763;55.798;37.782;2023-07-09T04:29:12;6.78;;;5.20;;
33421;SDS011;19763;55.798;37.782;2023-07-09T04:31:39;10.32;;;5.53;;
33421;SDS011;19763;55.798;37.782;2023-07-09T04:34:06;5.68;;;4.82;;
33421;SDS011;19763;55.798;37.782;2023-07-09T04:36:32;7.57;;;4.60;;
33421;SDS011;19763;55.798;37.782;2023-07-09T04:38:58;6.15;;;4.55;;
33421;SDS011;19763;55.798;37.782;2023-07-09T04:41:24;5.57;;;3.80;;
33421;SDS011;19763;55.798;37.782;2023-07-09T04:43:50;5.57;;;4.80;;
33421;SDS011;19763;55.798;37.782;2023-07-09T04:46:16;8.13;;;5.30;;
33421;SDS011;19763;55.798;37.782;2023-07-09T04:48:42;5.32;;;4.10;;
33421;SDS011;19763;55.798;37.782;2023-07-09T04:51:08;5.40;;;4.30;;
33421;SDS011;19763;55.798;37.782;2023-07-09T04:53:33;5.53;;;4.10;;
33421;SDS011;19763;55.798;37.782;2023-07-09T04:55:59;4.78;;;4.28;;
33421;SDS011;19763;55.798;37.782;2023-07-09T04:58:28;8.18;;;4.65;;
33421;SDS011;19763;55.798;37.782;2023-07-09T05:00:57;5.55;;;4.47;;
33421;SDS011;19763;55.798;37.782;2023-07-09T05:03:24;5.80;;;3.80;;
33421;SDS011;19763;55.798;37.782;2023-07-09T05:05:50;4.88;;;4.15;;
33421;SDS011;19763;55.798;37.782;2023-07-09T05:08:15;6.13;;;3.58;;
33421;SDS011;19763;55.798;37.782;2023-07-09T05:10:46;6.82;;;3.72;;
33421;SDS011;19763;55.798;37.782;2023-07-09T05:13:15;6.53;;;3.75;;
33421;SDS011;19763;55.798;37.782;2023-07-09T05:15:42;6.07;;;3.97;;
33421;SDS011;19763;55.798;37.782;2023-07-09T05:18:09;4.95;;;3.83;;
33421;SDS011;19763;55.798;37.782;2023-07-09T05:20:36;4.53;;;3.40;;
33421;SDS011;19763;55.798;37.782;2023-07-09T05:23:01;7.03;;;3.47;;
33421;SDS011;19763;55.798;37.782;2023-07-09T05:25:27;4.68;;;3.60;;
33421;SDS011;19763;55.798;37.782;2023-07-09T05:27:53;4.32;;;3.70;;
33421;SDS011;19763;55.798;37.782;2023-07-09T05:30:19;3.17;;;2.85;;
33421;SDS011;19763;55.798;37.782;2023-07-09T05:32:45;3.70;;;3.33;;
33421;SDS011;19763;55.798;37.782;2023-07-09T05:35:12;5.53;;;3.90;;
33421;SDS011;19763;55.798;37.782;2023-07-09T05:37:37;5.43;;;3.40;;
33421;SDS011;19763;55.798;37.782;2023-07-09T05:40:04;5.40;;;4.13;;
33421;SDS011;19763;55.798;37.782;2023-07-09T05:42:31;5.97;;;3.80;;
33421;SDS011;19763;55.798;37.782;2023-07-09T05:44:57;6.10;;;4.38;;
33421;SDS011;19763;55.798;37.782;2023-07-09T05:47:23;4.88;;;3.28;;
33421;SDS011;19763;55.798;37.782;2023-07-09T05:49:49;6.90;;;3.70;;
33421;SDS011;19763;55.798;37.782;2023-07-09T05:52:16;3.97;;;3.58;;
33421;SDS011;19763;55.798;37.782;2023-07-09T05:54:42;3.22;;;2.92;;
33421;SDS011;19763;55.798;37.782;2023-07-09T05:57:09;3.15;;;2.83;;
33421;SDS011;19763;55.798;37.782;2023-07-09T05:59:35;5.30;;;2.72;;
33421;SDS011;19763;55.798;37.782;2023-07-09T06:02:01;4.90;;;3.40;;
33421;SDS011;19763;55.798;37.782;2023-07-09T06:04:28;3.25;;;2.85;;
33421;SDS011;19763;55.798;37.782;2023-07-09T06:06:56;4.35;;;2.85;;
33421;SDS011;19763;55.798;37.782;2023-07-09T06:09:22;3.80;;;3.17;;
33421;SDS011;19763;55.798;37.782;2023-07-09T06:11:48;3.45;;;2.83;;
33421;SDS011;19763;55.798;37.782;2023-07-09T06:14:14;3.60;;;2.70;;
33421;SDS011;19763;55.798;37.782;2023-07-09T06:16:42;4.05;;;3.10;;
33421;SDS011;19763;55.798;37.782;2023-07-09T06:19:08;6.97;;;4.53;;
33421;SDS011;19763;55.798;37.782;2023-07-09T06:21:34;4.22;;;2.92;;
33421;SDS011;19763;55.798;37.782;2023-07-09T06:24:00;6.80;;;2.72;;
33421;SDS011;19763;55.798;37.782;2023-07-09T06:26:26;3.92;;;3.00;;
33421;SDS011;19763;55.798;37.782;2023-07-09T06:28:51;4.93;;;3.15;;
33421;SDS011;19763;55.798;37.782;2023-07-09T06:31:17;3.75;;;3.45;;
33421;SDS011;19763;55.798;37.782;2023-07-09T06:33:44;4.18;;;3.25;;
33421;SDS011;19763;55.798;37.782;2023-07-09T06:36:09;7.05;;;3.35;;
33421;SDS011;19763;55.798;37.782;2023-07-09T06:38:35;4.18;;;3.28;;
33421;SDS011;19763;55.798;37.782;2023-07-09T06:41:01;4.75;;;3.45;;
33421;SDS011;19763;55.798;37.782;2023-07-09T06:43:27;3.78;;;3.15;;
33421;SDS011;19763;55.798;37.782;2023-07-09T06:45:56;3.35;;;2.70;;
33421;SDS011;19763;55.798;37.782;2023-07-09T06:48:24;6.05;;;3.00;;
33421;SDS011;19763;55.798;37.782;2023-07-09T06:50:52;4.60;;;3.10;;
33421;SDS011;19763;55.798;37.782;2023-07-09T06:53:19;5.50;;;3.20;;
33421;SDS011;19763;55.798;37.782;2023-07-09T06:55:45;5.60;;;3.20;;
33421;SDS011;19763;55.798;37.782;2023-07-09T06:58:15;4.43;;;3.00;;
33421;SDS011;19763;55.798;37.782;2023-07-09T07:00:41;3.47;;;2.90;;
33421;SDS011;19763;55.798;37.782;2023-07-09T07:03:08;4.57;;;3.08;;
33421;SDS011;19763;55.798;37.782;2023-07-09T07:05:34;3.67;;;3.30;;
33421;SDS011;19763;55.798;37.782;2023-07-09T07:08:01;5.72;;;3.15;;
33421;SDS011;19763;55.798;37.782;2023-07-09T07:10:28;3.60;;;2.88;;
33421;SDS011;19763;55.798;37.782;2023-07-09T07:12:54;3.85;;;3.25;;
33421;SDS011;19763;55.798;37.782;2023-07-09T07:15:19;5.18;;;3.00;;
33421;SDS011;19763;55.798;37.782;2023-07-09T07:17:45;3.10;;;2.80;;
33421;SDS011;19763;55.798;37.782;2023-07-09T07:20:11;5.15;;;2.80;;
33421;SDS011;19763;55.798;37.782;2023-07-09T07:22:38;3.42;;;2.85;;
33421;SDS011;19763;55.798;37.782;2023-07-09T07:25:05;5.50;;;3.05;;
33421;SDS011;19763;55.798;37.782;2023-07-09T07:27:31;5.30;;;2.65;;
33421;SDS011;19763;55.798;37.782;2023-07-09T07:29:57;3.92;;;3.25;;
33421;SDS011;19763;55.798;37.782;2023-07-09T07:32:23;4.22;;;2.85;;
33421;SDS011;19763;55.798;37.782;2023-07-09T07:34:49;3.08;;;2.85;;
33421;SDS011;19763;55.798;37.782;2023-07-09T07:37:18;3.53;;;2.80;;
33421;SDS011;19763;55.798;37.782;2023-07-09T07:42:12;5.10;;;2.97;;
33421;SDS011;19763;55.798;37.782;2023-07-09T07:44:38;4.22;;;2.92;;
33421;SDS011;19763;55.798;37.782;2023-07-09T07:47:04;3.65;;;2.90;;
33421;SDS011;19763;55.798;37.782;2023-07-09T07:49:30;6.43;;;3.25;;
33421;SDS011;19763;55.798;37.782;2023-07-09T07:51:56;3.72;;;2.90;;
33421;SDS011;19763;55.798;37.782;2023-07-09T07:54:22;3.38;;;2.63;;
33421;SDS011;19763;55.798;37.782;2023-07-09T07:56:47;5.72;;;2.92;;
33421;SDS011;19763;55.798;37.782;2023-07-09T07:59:13;4.30;;;3.08;;
33421;SDS011;19763;55.798;37.782;2023-07-09T08:01:39;7.60;;;5.63;;
33421;SDS011;19763;55.798;37.782;2023-07-09T08:04:05;6.35;;;3.50;;
33421;SDS011;19763;55.798;37.782;2023-07-09T08:06:31;4.22;;;3.83;;
33421;SDS011;19763;55.798;37.782;2023-07-09T08:08:57;6.82;;;3.30;;
33421;SDS011;19763;55.798;37.782;2023-07-09T08:11:23;5.28;;;3.03;;
33421;SDS011;19763;55.798;37.782;2023-07-09T08:13:50;5.55;;;3.13;;
33421;SDS011;19763;55.798;37.782;2023-07-09T08:16:16;5.45;;;3.30;;
33421;SDS011;19763;55.798;37.782;2023-07-09T08:18:42;5.22;;;3.65;;
33421;SDS011;19763;55.798;37.782;2023-07-09T08:21:08;4.00;;;3.00;;
33421;SDS011;19763;55.798;37.782;2023-07-09T08:23:34;5.43;;;3.58;;
33421;SDS011;19763;55.798;37.782;2023-07-09T08:26:00;2.70;;;2.45;;
33421;SDS011;19763;55.798;37.782;2023-07-09T08:28:28;5.05;;;2.70;;
33421;SDS011;19763;55.798;37.782;2023-07-09T08:30:55;3.70;;;3.20;;
33421;SDS011;19763;55.798;37.782;2023-07-09T08:33:22;4.25;;;2.70;;
33421;SDS011;19763;55.798;37.782;2023-07-09T08:35:49;3.88;;;3.22;;
33421;SDS011;19763;55.798;37.782;2023-07-09T08:38:16;4.57;;;2.83;;
33421;SDS011;19763;55.798;37.782;2023-07-09T08:40:43;3.45;;;2.50;;
33421;SDS011;19763;55.798;37.782;2023-07-09T08:47:07;22.38;;;18.50;;
33421;SDS011;19763;55.798;37.782;2023-07-09T08:49:21;3.80;;;2.50;;
33421;SDS011;19763;55.798;37.782;2023-07-09T08:52:07;3.25;;;2.95;;
33421;SDS011;19763;55.798;37.782;2023-07-09T08:54:39;2.72;;;2.53;;
33421;SDS011;19763;55.798;37.782;2023-07-09T08:57:15;3.35;;;2.50;;
33421;SDS011;19763;55.798;37.782;2023-07-09T08:59:55;2.88;;;2.67;;
33421;SDS011;19763;55.798;37.782;2023-07-09T09:02:35;9.65;;;7.75;;
33421;SDS011;19763;55.798;37.782;2023-07-09T09:05:08;3.35;;;2.95;;
33421;SDS011;19763;55.798;37.782;2023-07-09T09:10:10;4.85;;;2.83;;
33421;SDS011;19763;55.798;37.782;2023-07-09T09:12:47;4.32;;;3.40;;
33421;SDS011;19763;55.798;37.782;2023-07-09T09:15:39;3.53;;;2.80;;
33421;SDS011;19763;55.798;37.782;2023-07-09T09:18:26;3.80;;;2.33;;
33421;SDS011;19763;55.798;37.782;2023-07-09T09:20:55;3.55;;;2.70;;
33421;SDS011;19763;55.798;37.782;2023-07-09T09:23:29;5.57;;;4.47;;
33421;SDS011;19763;55.798;37.782;2023-07-09T09:26:03;3.03;;;2.72;;
33421;SDS011;19763;55.798;37.782;2023-07-09T09:28:39;3.40;;;3.10;;
33421;SDS011;19763;55.798;37.782;2023-07-09T09:31:04;4.65;;;2.80;;
33421;SDS011;19763;55.798;37.782;2023-07-09T09:33:43;3.50;;;2.85;;
33421;SDS011;19763;55.798;37.782;2023-07-09T09:36:20;3.22;;;2.55;;
33421;SDS011;19763;55.798;37.782;2023-07-09T09:38:50;4.10;;;2.42;;
33421;SDS011;19763;55.798;37.782;2023-07-09T09:41:20;2.72;;;2.50;;
33421;SDS011;19763;55.798;37.782;2023-07-09T09:43:48;5.93;;;2.63;;
33421;SDS011;19763;55.798;37.782;2023-07-09T09:46:17;3.88;;;2.58;;
33421;SDS011;19763;55.798;37.782;2023-07-09T09:48:45;3.85;;;2.60;;
33421;SDS011;19763;55.798;37.782;2023-07-09T09:51:13;3.78;;;2.55;;
33421;SDS011;19763;55.798;37.782;2023-07-09T09:53:40;27.60;;;18.73;;
33421;SDS011;19763;55.798;37.782;2023-07-09T09:56:14;4.93;;;3.43;;
33421;SDS011;19763;55.798;37.782;2023-07-09T09:58:45;3.13;;;2.35;;
33421;SDS011;19763;55.798;37.782;2023-07-09T10:01:17;5.60;;;2.97;;
33421;SDS011;19763;55.798;37.782;2023-07-09T10:03:43;4.00;;;2.70;;
33421;SDS011;19763;55.798;37.782;2023-07-09T10:06:15;6.32;;;2.90;;
33421;SDS011;19763;55.798;37.782;2023-07-09T10:11:16;3.65;;;2.72;;
33421;SDS011;19763;55.798;37.782;2023-07-09T10:13:44;7.13;;;6.40;;
33421;SDS011;19763;55.798;37.782;2023-07-09T10:16:14;2.55;;;2.35;;
33421;SDS011;19763;55.798;37.782;2023-07-09T10:24:27;4.13;;;2.58;;
33421;SDS011;19763;55.798;37.782;2023-07-09T10:27:03;4.95;;;2.90;;
33421;SDS011;19763;55.798;37.782;2023-07-09T10:32:57;4.15;;;2.55;;
33421;SDS011;19763;55.798;37.782;2023-07-09T10:41:11;2.92;;;2.63;;
33421;SDS011;19763;55.798;37.782;2023-07-09T10:43:41;3.33;;;2.90;;
33421;SDS011;19763;55.798;37.782;2023-07-09T10:46:16;4.90;;;2.65;;
33421;SDS011;19763;55.798;37.782;2023-07-09T10:48:48;3.20;;;2.90;;
33421;SDS011;19763;55.798;37.782;2023-07-09T10:56:38;7.28;;;3.72;;
33421;SDS011;19763;55.798;37.782;2023-07-09T10:59:16;3.53;;;2.78;;
33421;SDS011;19763;55.798;37.782;2023-07-09T11:07:23;3.35;;;2.58;;
33421;SDS011;19763;55.798;37.782;2023-07-09T11:09:54;3.40;;;3.10;;
33421;SDS011;19763;55.798;37.782;2023-07-09T11:12:37;5.53;;;3.00;;
33421;SDS011;19763;55.798;37.782;2023-07-09T11:15:18;4.25;;;2.72;;
33421;SDS011;19763;55.798;37.782;2023-07-09T11:17:49;3.70;;;2.90;;
33421;SDS011;19763;55.798;37.782;2023-07-09T11:22:52;9.88;;;6.93;;
33421;SDS011;19763;55.798;37.782;2023-07-09T11:25:45;4.63;;;2.90;;
33421;SDS011;19763;55.798;37.782;2023-07-09T11:28:13;3.58;;;3.10;;
33421;SDS011;19763;55.798;37.782;2023-07-09T11:30:46;4.30;;;3.03;;
33421;SDS011;19763;55.798;37.782;2023-07-09T11:33:26;4.25;;;3.05;;
33421;SDS011;19763;55.798;37.782;2023-07-09T11:36:08;4.57;;;2.92;;
33421;SDS011;19763;55.798;37.782;2023-07-09T11:38:39;4.78;;;3.95;;
33421;SDS011;19763;55.798;37.782;2023-07-09T11:43:52;4.63;;;2.72;;
33421;SDS011;19763;55.798;37.782;2023-07-09T11:46:18;4.90;;;3.17;;
33421;SDS011;19763;55.798;37.782;2023-07-09T11:48:49;4.55;;;2.80;;
33421;SDS011;19763;55.798;37.782;2023-07-09T11:51:16;5.60;;;3.38;;
33421;SDS011;19763;55.798;37.782;2023-07-09T11:53:49;3.38;;;3.08;;
33421;SDS011;19763;55.798;37.782;2023-07-09T11:56:20;4.80;;;2.97;;
33421;SDS011;19763;55.798;37.782;2023-07-09T11:58:48;4.88;;;3.03;;
33421;SDS011;19763;55.798;37.782;2023-07-09T12:01:18;4.40;;;2.90;;
33421;SDS011;19763;55.798;37.782;2023-07-09T12:03:51;5.97;;;2.92;;
33421;SDS011;19763;55.798;37.782;2023-07-09T12:06:20;4.38;;;3.17;;
33421;SDS011;19763;55.798;37.782;2023-07-09T12:08:48;5.00;;;3.15;;
33421;SDS011;19763;55.798;37.782;2023-07-09T12:11:23;9.98;;;3.00;;
33421;SDS011;19763;55.798;37.782;2023-07-09T12:14:03;5.13;;;2.67;;
33421;SDS011;19763;55.798;37.782;2023-07-09T12:18:58;4.55;;;3.75;;
33421;SDS011;19763;55.798;37.782;2023-07-09T12:21:24;4.20;;;3.75;;
33421;SDS011;19763;55.798;37.782;2023-07-09T12:23:50;5.07;;;2.67;;
33421;SDS011;19763;55.798;37.782;2023-07-09T12:26:18;15.73;;;3.65;;
33421;SDS011;19763;55.798;37.782;2023-07-09T12:28:54;4.45;;;2.80;;
33421;SDS011;19763;55.798;37.782;2023-07-09T12:31:27;8.15;;;3.05;;
33421;SDS011;19763;55.798;37.782;2023-07-09T12:33:55;5.22;;;4.35;;
33421;SDS011;19763;55.798;37.782;2023-07-09T12:36:23;4.13;;;3.70;;
33421;SDS011;19763;55.798;37.782;2023-07-09T12:38:51;3.50;;;3.20;;
33421;SDS011;19763;55.798;37.782;2023-07-09T12:41:24;3.88;;;3.05;;
33421;SDS011;19763;55.798;37.782;2023-07-09T12:43:53;8.07;;;6.55;;
33421;SDS011;19763;55.798;37.782;2023-07-09T12:46:21;4.13;;;2.97;;
33421;SDS011;19763;55.798;37.782;2023-07-09T12:48:47;2.70;;;2.50;;
33421;SDS011;19763;55.798;37.782;2023-07-09T12:51:18;3.42;;;2.70;;
33421;SDS011;19763;55.798;37.782;2023-07-09T12:53:46;5.80;;;2.92;;
33421;SDS011;19763;55.798;37.782;2023-07-09T12:56:13;7.68;;;2.80;;
33421;SDS011;19763;55.798;37.782;2023-07-09T12:58:42;3.75;;;3.10;;
33421;SDS011;19763;55.798;37.782;2023-07-09T13:01:16;3.67;;;2.42;;
33421;SDS011;19763;55.798;37.782;2023-07-09T13:03:51;3.90;;;2.95;;
33421;SDS011;19763;55.798;37.782;2023-07-09T13:06:28;3.78;;;2.60;;
33421;SDS011;19763;55.798;37.782;2023-07-09T13:08:58;3.58;;;2.97;;
33421;SDS011;19763;55.798;37.782;2023-07-09T13:11:25;3.75;;;2.83;;
33421;SDS011;19763;55.798;37.782;2023-07-09T13:13:59;3.60;;;2.53;;
33421;SDS011;19763;55.798;37.782;2023-07-09T13:18:55;28.67;;;21.60;;
33421;SDS011;19763;55.798;37.782;2023-07-09T13:21:21;6.88;;;3.67;;
33421;SDS011;19763;55.798;37.782;2023-07-09T13:23:47;4.03;;;3.33;;
33421;SDS011;19763;55.798;37.782;2023-07-09T13:26:16;5.20;;;3.13;;
33421;SDS011;19763;55.798;37.782;2023-07-09T13:28:42;5.28;;;3.10;;
33421;SDS011;19763;55.798;37.782;2023-07-09T13:31:13;4.90;;;2.78;;
33421;SDS011;19763;55.798;37.782;2023-07-09T13:33:44;4.03;;;2.88;;
33421;SDS011;19763;55.798;37.782;2023-07-09T13:36:15;3.75;;;2.50;;
33421;SDS011;19763;55.798;37.782;2023-07-09T13:38:41;6.97;;;3.05;;
33421;SDS011;19763;55.798;37.782;2023-07-09T13:41:11;3.20;;;2.70;;
33421;SDS011;19763;55.798;37.782;2023-07-09T13:43:41;3.85;;;2.40;;
33421;SDS011;19763;55.798;37.782;2023-07-09T13:46:09;3.67;;;3.03;;
33421;SDS011;19763;55.798;37.782;2023-07-09T13:48:36;5.75;;;3.50;;
33421;SDS011;19763;55.798;37.782;2023-07-09T13:51:14;3.00;;;2.72;;
33421;SDS011;19763;55.798;37.782;2023-07-09T13:53:45;4.57;;;4.07;;
33421;SDS011;19763;55.798;37.782;2023-07-09T13:56:11;4.07;;;3.45;;
33421;SDS011;19763;55.798;37.782;2023-07-09T13:58:37;3.90;;;2.60;;
33421;SDS011;19763;55.798;37.782;2023-07-09T14:01:09;5.13;;;2.92;;
33421;SDS011;19763;55.798;37.782;2023-07-09T14:03:41;5.18;;;2.88;;
33421;SDS011;19763;55.798;37.782;2023-07-09T14:06:13;3.55;;;2.80;;
33421;SDS011;19763;55.798;37.782;2023-07-09T14:08:40;5.38;;;2.70;;
33421;SDS011;19763;55.798;37.782;2023-07-09T14:11:10;4.43;;;3.03;;
33421;SDS011;19763;55.798;37.782;2023-07-09T14:13:37;5.22;;;2.60;;
33421;SDS011;19763;55.798;37.782;2023-07-09T14:16:03;4.10;;;2.95;;
33421;SDS011;19763;55.798;37.782;2023-07-09T14:18:29;4.30;;;2.75;;
33421;SDS011;19763;55.798;37.782;2023-07-09T14:20:55;3.63;;;2.67;;
33421;SDS011;19763;55.798;37.782;2023-07-09T14:23:21;3.55;;;2.45;;
33421;SDS011;19763;55.798;37.782;2023-07-09T14:25:47;7.22;;;3.15;;
33421;SDS011;19763;55.798;37.782;2023-07-09T14:28:15;3.85;;;3.38;;
33421;SDS011;19763;55.798;37.782;2023-07-09T14:30:42;4.53;;;2.95;;
33421;SDS011;19763;55.798;37.782;2023-07-09T14:33:17;3.05;;;2.50;;
33421;SDS011;19763;55.798;37.782;2023-07-09T14:35:44;4.53;;;2.80;;
33421;SDS011;19763;55.798;37.782;2023-07-09T14:38:21;3.80;;;2.70;;
33421;SDS011;19763;55.798;37.782;2023-07-09T14:40:52;5.07;;;3.05;;
33421;SDS011;19763;55.798;37.782;2023-07-09T14:43:20;3.15;;;2.75;;
33421;SDS011;19763;55.798;37.782;2023-07-09T14:45:47;4.63;;;2.92;;
33421;SDS011;19763;55.798;37.782;2023-07-09T14:48:17;4.75;;;2.83;;
33421;SDS011;19763;55.798;37.782;2023-07-09T14:50:45;3.63;;;2.83;;
33421;SDS011;19763;55.798;37.782;2023-07-09T14:53:21;2.97;;;2.50;;
33421;SDS011;19763;55.798;37.782;2023-07-09T14:55:52;4.65;;;3.40;;
33421;SDS011;19763;55.798;37.782;2023-07-09T14:58:21;5.07;;;3.20;;
33421;SDS011;19763;55.798;37.782;2023-07-09T15:00:48;3.85;;;3.05;;
33421;SDS011;19763;55.798;37.782;2023-07-09T15:03:22;5.47;;;3.20;;
33421;SDS011;19763;55.798;37.782;2023-07-09T15:05:50;3.50;;;2.58;;
33421;SDS011;19763;55.798;37.782;2023-07-09T15:08:17;3.95;;;3.60;;
33421;SDS011;19763;55.798;37.782;2023-07-09T15:10:47;4.82;;;3.22;;
33421;SDS011;19763;55.798;37.782;2023-07-09T15:13:15;6.63;;;3.70;;
33421;SDS011;19763;55.798;37.782;2023-07-09T15:15:45;5.15;;;4.10;;
33421;SDS011;19763;55.798;37.782;2023-07-09T15:18:12;4.25;;;3.50;;
33421;SDS011;19763;55.798;37.782;2023-07-09T15:20:40;5.55;;;3.42;;
33421;SDS011;19763;55.798;37.782;2023-07-09T15:23:10;5.28;;;3.40;;
33421;SDS011;19763;55.798;37.782;2023-07-09T15:25:36;4.95;;;3.25;;
33421;SDS011;19763;55.798;37.782;2023-07-09T15:28:02;3.40;;;2.90;;
33421;SDS011;19763;55.798;37.782;2023-07-09T15:30:28;4.70;;;4.20;;
33421;SDS011;19763;55.798;37.782;2023-07-09T15:32:55;5.50;;;3.30;;